createdAt,value
2023-05-24T00:00:23.805Z,100055.41
2023-05-24T00:02:51.220Z,100053.00
2023-05-24T00:05:19.064Z,100059.25
2023-05-24T00:07:46.345Z,100062.78
2023-05-24T00:10:13.522Z,100062.09
2023-05-24T00:12:40.829Z,100060.28
2023-05-24T00:15:08.503Z,100057.72
2023-05-24T00:17:41.456Z,100055.09
2023-05-24T00:20:13.639Z,100056.22
2023-05-24T00:22:41.970Z,100047.78
2023-05-24T00:25:09.333Z,100056.50
2023-05-24T00:27:37.582Z,100050.69
2023-05-24T00:30:06.450Z,100059.31
2023-05-24T00:32:33.718Z,100055.91
2023-05-24T00:35:00.836Z,100045.72
2023-05-24T00:37:29.750Z,100036.03
2023-05-24T00:39:57.102Z,100034.25
2023-05-24T00:42:24.420Z,100030.88
2023-05-24T00:44:51.472Z,100021.53
2023-05-24T00:47:19.491Z,100024.25
2023-05-24T00:49:47.032Z,100023.41
2023-05-24T00:52:14.456Z,100013.44
2023-05-24T00:54:42.025Z,100018.66
2023-05-24T00:57:09.333Z,100013.81
2023-05-24T00:59:36.836Z,100036.38
2023-05-24T01:02:05.322Z,100025.72
2023-05-24T01:04:33.399Z,100044.81
2023-05-24T01:07:23.737Z,100048.38
2023-05-24T01:10:14.625Z,100044.13
2023-05-24T01:13:10.837Z,100056.47
2023-05-24T01:15:50.810Z,100061.13
2023-05-24T01:18:26.538Z,100060.22
2023-05-24T01:21:06.916Z,100058.41
2023-05-24T01:23:36.909Z,100072.56
2023-05-24T01:26:21.599Z,100074.28
2023-05-24T01:28:49.352Z,100063.63
2023-05-24T01:31:18.279Z,100057.34
2023-05-24T01:33:45.579Z,100056.25
2023-05-24T01:36:12.698Z,100056.38
2023-05-24T01:38:41.440Z,100059.91
2023-05-24T01:41:19.255Z,100066.81
2023-05-24T01:43:59.985Z,100068.63
2023-05-24T01:46:34.465Z,100069.47
2023-05-24T01:49:26.461Z,100084.28
2023-05-24T01:52:04.153Z,100093.03
2023-05-24T01:54:35.095Z,100088.69
2023-05-24T01:57:07.014Z,100085.44
2023-05-24T01:59:36.444Z,100084.63
2023-05-24T02:02:03.793Z,100083.13
2023-05-24T02:04:31.572Z,100088.22
2023-05-24T02:06:58.646Z,100093.34
2023-05-24T02:09:25.732Z,100100.28
2023-05-24T02:11:52.854Z,100102.94
2023-05-24T02:14:20.751Z,100104.72
2023-05-24T02:16:51.002Z,100105.72
2023-05-24T02:19:19.657Z,100114.50
2023-05-24T02:21:46.929Z,100111.13
2023-05-24T02:24:15.168Z,100116.47
2023-05-24T02:26:42.397Z,100123.59
2023-05-24T02:29:09.668Z,100116.97
2023-05-24T02:31:37.273Z,100127.41
2023-05-24T02:34:04.459Z,100119.00
2023-05-24T02:36:32.896Z,100125.09
2023-05-24T02:39:00.020Z,100126.03
2023-05-24T02:41:27.195Z,100120.13
2023-05-24T02:43:54.502Z,100121.19
2023-05-24T02:46:21.747Z,100129.91
2023-05-24T02:48:49.977Z,100125.69
2023-05-24T02:51:17.279Z,100125.75
2023-05-24T02:53:45.608Z,100132.88
2023-05-24T02:56:14.243Z,100126.03
2023-05-24T02:58:41.940Z,100130.50
2023-05-24T03:01:09.159Z,100137.59
2023-05-24T03:03:36.735Z,100136.09
2023-05-24T03:06:07.309Z,100142.34
2023-05-24T03:08:35.072Z,100144.16
2023-05-24T03:11:02.307Z,100143.38
2023-05-24T03:13:29.663Z,100144.44
2023-05-24T03:15:56.945Z,100141.88
2023-05-24T03:18:24.171Z,100146.31
2023-05-24T03:20:52.047Z,100142.03
2023-05-24T03:23:19.251Z,100138.56
2023-05-24T03:25:46.535Z,100148.16
2023-05-24T03:28:15.369Z,100147.44
2023-05-24T03:30:43.972Z,100159.50
2023-05-24T03:33:11.368Z,100155.19
2023-05-24T03:35:38.633Z,100157.78
2023-05-24T03:38:06.041Z,100157.88
2023-05-24T03:40:34.854Z,100155.38
2023-05-24T03:43:05.126Z,100163.28
2023-05-24T03:45:42.501Z,100160.75
2023-05-24T03:48:09.867Z,100163.38
2023-05-24T03:50:37.109Z,100170.38
2023-05-24T03:53:04.240Z,100165.25
2023-05-24T03:55:31.554Z,100172.88
2023-05-24T03:57:58.784Z,100180.59
2023-05-24T04:00:26.365Z,100187.56
2023-05-24T04:02:54.182Z,100194.47
2023-05-24T04:05:22.504Z,100184.88
2023-05-24T04:07:49.849Z,100189.13
2023-05-24T04:10:19.089Z,100194.34
2023-05-24T04:12:46.351Z,100198.69
2023-05-24T04:15:16.479Z,100204.75
2023-05-24T04:17:45.063Z,100206.50
2023-05-24T04:20:13.388Z,100203.09
2023-05-24T04:22:41.076Z,100203.16
2023-05-24T04:25:10.316Z,100218.69
2023-05-24T04:27:37.679Z,100220.41
2023-05-24T04:30:05.889Z,100210.06
2023-05-24T04:32:33.098Z,100221.25
2023-05-24T04:35:03.086Z,100227.38
2023-05-24T04:37:32.073Z,100224.78
2023-05-24T04:39:59.299Z,100231.00
2023-05-24T04:42:27.658Z,100232.66
2023-05-24T04:44:54.797Z,100230.91
2023-05-24T04:47:21.983Z,100241.31
2023-05-24T04:49:49.556Z,100236.13
2023-05-24T04:52:17.502Z,100233.50
2023-05-24T04:54:44.954Z,100232.53
2023-05-24T04:57:12.132Z,100237.66
2023-05-24T04:59:39.226Z,100234.06
2023-05-24T05:02:06.488Z,100239.19
2023-05-24T05:04:33.784Z,100247.00
2023-05-24T05:07:01.085Z,100247.91
2023-05-24T05:09:28.515Z,100246.13
2023-05-24T05:11:55.874Z,100254.72
2023-05-24T05:14:23.053Z,100261.75
2023-05-24T05:16:50.370Z,100265.31
2023-05-24T05:19:17.579Z,100268.00
2023-05-24T05:21:44.825Z,100272.31
2023-05-24T05:24:12.129Z,100275.75
2023-05-24T05:26:39.334Z,100272.31
2023-05-24T05:29:06.636Z,100283.44
2023-05-24T05:31:33.898Z,100273.88
2023-05-24T05:34:01.162Z,100288.53
2023-05-24T05:36:28.403Z,100296.25
2023-05-24T05:38:55.631Z,100283.44
2023-05-24T05:41:22.781Z,100297.13
2023-05-24T05:43:49.935Z,100292.84
2023-05-24T05:46:17.225Z,100289.31
2023-05-24T05:48:46.316Z,100292.75
2023-05-24T05:51:14.229Z,100302.34
2023-05-24T05:53:41.435Z,100310.25
2023-05-24T05:56:08.593Z,100313.84
2023-05-24T05:58:35.915Z,100321.53
2023-05-24T06:01:03.129Z,100310.22
2023-05-24T06:03:30.447Z,100310.16
2023-05-24T06:05:57.711Z,100318.72
2023-05-24T06:08:24.850Z,100323.84
2023-05-24T06:10:53.123Z,100319.53
2023-05-24T06:13:20.375Z,100315.91
2023-05-24T06:15:47.716Z,100327.16
2023-05-24T06:18:15.748Z,100320.16
2023-05-24T06:20:45.299Z,100316.66
2023-05-24T06:23:13.010Z,100318.38
2023-05-24T06:25:40.776Z,100328.00
2023-05-24T06:28:07.939Z,100330.69
2023-05-24T06:30:35.369Z,100334.09
2023-05-24T06:33:02.841Z,100353.94
2023-05-24T06:35:30.058Z,100350.38
2023-05-24T06:37:58.172Z,100355.53
2023-05-24T06:40:25.362Z,100346.06
2023-05-24T06:42:52.510Z,100364.19
2023-05-24T06:45:19.677Z,100372.91
2023-05-24T06:47:47.303Z,100368.63
2023-05-24T06:50:14.712Z,100372.03
2023-05-24T06:52:42.024Z,100391.00
2023-05-24T06:55:09.988Z,100384.00
2023-05-24T06:57:37.087Z,100395.19
2023-05-24T07:00:10.155Z,100391.66
2023-05-24T07:02:37.448Z,100406.56
2023-05-24T07:05:05.453Z,100406.75
2023-05-24T07:07:32.805Z,100412.03
2023-05-24T07:09:59.899Z,100413.84
2023-05-24T07:12:27.131Z,100419.03
2023-05-24T07:14:58.618Z,100421.56
2023-05-24T07:17:25.840Z,100421.44
2023-05-24T07:19:53.093Z,100420.50
2023-05-24T07:22:20.321Z,100422.22
2023-05-24T07:24:47.469Z,100421.34
2023-05-24T07:27:14.567Z,100432.63
2023-05-24T07:29:42.002Z,100427.44
2023-05-24T07:32:09.258Z,100425.63
2023-05-24T07:34:36.469Z,100419.59
2023-05-24T07:37:03.703Z,100424.69
2023-05-24T07:39:30.887Z,100435.88
2023-05-24T07:41:58.188Z,100428.97
2023-05-24T07:44:25.346Z,100424.03
2023-05-24T07:46:52.664Z,100442.03
2023-05-24T07:49:19.832Z,100442.94
2023-05-24T07:51:47.010Z,100444.47
2023-05-24T07:54:14.203Z,100443.69
2023-05-24T07:56:42.987Z,100446.22
2023-05-24T07:59:10.256Z,100447.09
2023-05-24T08:01:38.176Z,100448.00
2023-05-24T08:04:05.685Z,100441.84
2023-05-24T08:06:35.847Z,100452.28
2023-05-24T08:09:04.675Z,100452.28
2023-05-24T08:11:31.782Z,100458.25
2023-05-24T08:13:58.907Z,100456.47
2023-05-24T08:16:26.312Z,100467.75
2023-05-24T08:18:55.092Z,100466.91
2023-05-24T08:21:22.794Z,100472.19
2023-05-24T08:23:49.957Z,100466.97
2023-05-24T08:26:19.417Z,100475.63
2023-05-24T08:28:46.749Z,100479.13
2023-05-24T08:31:14.021Z,100479.13
2023-05-24T08:33:41.544Z,100472.28
2023-05-24T08:36:08.918Z,100467.06
2023-05-24T08:38:36.390Z,100466.34
2023-05-24T08:41:07.636Z,100473.22
2023-05-24T08:43:35.594Z,100475.81
2023-05-24T08:46:04.152Z,100463.16
2023-05-24T08:48:31.842Z,100490.66
2023-05-24T08:50:59.659Z,100489.94
2023-05-24T08:53:27.623Z,100502.84
2023-05-24T08:55:56.357Z,100502.06
2023-05-24T08:58:23.682Z,100504.03
2023-05-24T09:00:50.948Z,100510.09
2023-05-24T09:03:18.989Z,100509.34
2023-05-24T09:05:46.529Z,100512.69
2023-05-24T09:08:18.311Z,100518.03
2023-05-24T09:13:20.411Z,100536.16
2023-05-24T09:15:47.603Z,100528.31
2023-05-24T09:18:14.971Z,100525.94
2023-05-24T09:20:42.320Z,100535.31
2023-05-24T09:23:11.074Z,100540.44
2023-05-24T09:25:44.671Z,100540.38
2023-05-24T09:28:15.036Z,100547.34
2023-05-24T09:30:47.073Z,100540.38
2023-05-24T09:33:14.292Z,100538.59
2023-05-24T09:35:44.788Z,100537.00
2023-05-24T09:38:21.005Z,100550.97
2023-05-24T09:40:48.290Z,100546.69
2023-05-24T09:43:15.473Z,100551.03
2023-05-24T09:45:47.317Z,100555.31
2023-05-24T09:48:20.521Z,100556.19
2023-05-24T09:51:01.485Z,100557.97
2023-05-24T09:53:28.938Z,100549.38
2023-05-24T09:55:56.349Z,100554.59
2023-05-24T09:58:23.594Z,100558.19
2023-05-24T10:00:51.248Z,100560.75
2023-05-24T10:03:18.441Z,100571.91
2023-05-24T10:05:47.105Z,100566.69
2023-05-24T10:08:14.771Z,100580.59
2023-05-24T10:10:42.720Z,100579.59
2023-05-24T10:13:10.713Z,100569.97
2023-05-24T10:15:38.758Z,100571.66
2023-05-24T10:18:10.643Z,100571.50
2023-05-24T10:20:41.976Z,100569.78
2023-05-24T10:23:11.368Z,100564.75
2023-05-24T10:25:42.286Z,100563.91
2023-05-24T10:28:13.068Z,100567.19
2023-05-24T10:31:02.720Z,100562.66
2023-05-24T10:33:32.872Z,100564.22
2023-05-24T10:36:00.166Z,100581.41
2023-05-24T10:38:27.364Z,100584.75
2023-05-24T10:40:54.484Z,100589.88
2023-05-24T10:43:22.370Z,100582.03
2023-05-24T10:45:50.864Z,100586.13
2023-05-24T10:48:23.899Z,100589.50
2023-05-24T10:50:51.444Z,100591.19
2023-05-24T10:53:20.654Z,100595.47
2023-05-24T10:56:01.489Z,100592.75
2023-05-24T10:58:44.026Z,100592.66
2023-05-24T11:01:25.253Z,100591.78
2023-05-24T11:03:52.563Z,100587.34
2023-05-24T11:06:20.053Z,100589.06
2023-05-24T11:08:47.218Z,100587.34
2023-05-24T11:11:26.516Z,100599.44
2023-05-24T11:13:58.155Z,100602.91
2023-05-24T11:16:40.364Z,100597.69
2023-05-24T11:19:22.344Z,100614.91
2023-05-24T11:21:51.649Z,100612.13
2023-05-24T11:24:20.067Z,100615.56
2023-05-24T11:26:47.436Z,100619.84
2023-05-24T11:29:18.092Z,100619.81
2023-05-24T11:31:50.975Z,100628.34
2023-05-24T11:34:19.043Z,100621.22
2023-05-24T11:36:47.661Z,100626.38
2023-05-24T11:39:15.369Z,100622.16
2023-05-24T11:41:42.844Z,100627.16
2023-05-24T11:44:11.800Z,100628.66
2023-05-24T11:46:39.777Z,100632.03
2023-05-24T11:49:07.316Z,100621.56
2023-05-24T11:51:36.086Z,100624.19
2023-05-24T11:54:04.717Z,100618.16
2023-05-24T11:56:33.884Z,100620.81
2023-05-24T11:59:16.158Z,100614.03
2023-05-24T12:01:44.143Z,100620.81
2023-05-24T12:04:12.246Z,100617.16
2023-05-24T12:06:44.611Z,100606.41
2023-05-24T12:09:18.263Z,100613.09
2023-05-24T12:11:48.387Z,100618.00
2023-05-24T12:14:18.028Z,100623.34
2023-05-24T12:16:46.926Z,100619.91
2023-05-24T12:19:31.623Z,100621.91
2023-05-24T12:21:59.551Z,100624.56
2023-05-24T12:24:27.884Z,100629.00
2023-05-24T12:27:02.183Z,100617.59
2023-05-24T12:29:41.720Z,100621.53
2023-05-24T12:32:14.056Z,100624.97
2023-05-24T12:34:45.447Z,100614.69
2023-05-24T12:37:14.024Z,100628.75
2023-05-24T12:39:43.881Z,100629.13
2023-05-24T12:42:12.784Z,100621.56
2023-05-24T12:44:40.260Z,100624.31
2023-05-24T12:47:09.003Z,100636.66
2023-05-24T12:49:36.994Z,100633.50
2023-05-24T12:52:04.290Z,100630.41
2023-05-24T12:54:31.914Z,100622.72
2023-05-24T12:57:05.699Z,100629.84
2023-05-24T12:59:34.180Z,100630.75
2023-05-24T13:02:02.463Z,100640.25
2023-05-24T13:04:31.984Z,100634.88
2023-05-24T13:06:59.470Z,100634.75
2023-05-24T13:09:27.283Z,100635.53
2023-05-24T13:11:55.844Z,100637.28
2023-05-24T13:14:23.497Z,100627.06
2023-05-24T13:16:51.023Z,100638.97
2023-05-24T13:19:18.896Z,100632.72
2023-05-24T13:21:46.402Z,100627.38
2023-05-24T13:24:16.568Z,100627.34
2023-05-24T13:26:44.003Z,100633.84
2023-05-24T13:31:42.059Z,100636.22
2023-05-24T13:34:11.484Z,100634.44
2023-05-24T13:36:39.563Z,100641.28
2023-05-24T13:41:40.888Z,100641.59
2023-05-24T13:44:08.126Z,100632.38
2023-05-24T13:46:36.727Z,100648.16
2023-05-24T13:49:04.741Z,100649.19
2023-05-24T13:51:32.108Z,100643.25
2023-05-24T13:53:59.865Z,100651.06
2023-05-24T13:56:33.082Z,100644.38
2023-05-24T13:59:03.004Z,100640.00
2023-05-24T14:01:30.937Z,100652.84
2023-05-24T14:03:58.272Z,100654.53
2023-05-24T14:06:25.599Z,100647.72
2023-05-24T14:08:53.626Z,100647.72
2023-05-24T14:11:20.910Z,100652.94
2023-05-24T14:16:19.765Z,100651.38
2023-05-24T14:18:49.360Z,100651.44
2023-05-24T14:21:19.110Z,100649.69
2023-05-24T14:23:46.323Z,100641.97
2023-05-24T14:26:13.786Z,100649.13
2023-05-24T14:28:41.377Z,100647.28
2023-05-24T14:31:08.740Z,100645.63
2023-05-24T14:33:35.950Z,100654.41
2023-05-24T14:36:03.162Z,100643.25
2023-05-24T14:38:30.652Z,100643.16
2023-05-24T14:40:59.070Z,100660.34
2023-05-24T14:43:26.583Z,100652.56
2023-05-24T14:45:53.953Z,100659.38
2023-05-24T14:48:21.300Z,100660.22
2023-05-24T14:50:48.681Z,100667.03
2023-05-24T14:53:16.011Z,100666.28
2023-05-24T14:55:44.378Z,100658.72
2023-05-24T14:58:12.462Z,100662.31
2023-05-24T15:00:41.020Z,100663.22
2023-05-24T15:03:09.230Z,100672.91
2023-05-24T15:05:37.086Z,100672.84
2023-05-24T15:08:05.805Z,100670.97
2023-05-24T15:10:33.646Z,100671.03
2023-05-24T15:13:01.761Z,100676.44
2023-05-24T15:15:29.041Z,100681.94
2023-05-24T15:17:57.883Z,100678.59
2023-05-24T15:20:26.014Z,100683.81
2023-05-24T15:22:53.474Z,100686.56
2023-05-24T15:25:21.173Z,100690.97
2023-05-24T15:27:48.847Z,100691.06
2023-05-24T15:30:17.753Z,100693.78
2023-05-24T15:32:46.819Z,100700.94
2023-05-24T15:35:14.444Z,100705.28
2023-05-24T15:37:43.069Z,100704.34
2023-05-24T15:40:11.248Z,100703.50
2023-05-24T15:42:38.549Z,100694.00
2023-05-24T15:45:07.564Z,100704.50
2023-05-24T15:47:40.207Z,100707.16
2023-05-24T15:50:08.724Z,100710.53
2023-05-24T15:52:36.804Z,100708.00
2023-05-24T15:55:04.368Z,100708.84
2023-05-24T15:57:32.327Z,100713.16
2023-05-24T15:59:59.614Z,100705.41
2023-05-24T16:02:27.327Z,100706.31
2023-05-24T16:04:55.729Z,100701.09
2023-05-24T16:07:23.326Z,100705.56
2023-05-24T16:09:51.143Z,100709.16
2023-05-24T16:12:18.837Z,100698.81
2023-05-24T16:14:46.519Z,100711.03
2023-05-24T16:17:15.257Z,100705.03
2023-05-24T16:19:42.561Z,100707.66
2023-05-24T16:22:09.686Z,100710.31
2023-05-24T16:24:36.959Z,100717.97
2023-05-24T16:27:04.402Z,100720.59
2023-05-24T16:29:31.651Z,100714.47
2023-05-24T16:31:59.143Z,100725.72
2023-05-24T16:34:26.643Z,100714.47
2023-05-24T16:36:54.283Z,100721.28
2023-05-24T16:39:21.757Z,100731.63
2023-05-24T16:41:48.943Z,100728.25
2023-05-24T16:44:19.260Z,100734.22
2023-05-24T16:46:47.214Z,100733.41
2023-05-24T16:49:14.604Z,100729.97
2023-05-24T16:51:41.827Z,100729.19
2023-05-24T16:54:09.489Z,100724.91
2023-05-24T16:56:38.265Z,100724.13
2023-05-24T16:59:05.779Z,100730.97
2023-05-24T17:01:33.426Z,100736.25
2023-05-24T17:04:00.817Z,100737.25
2023-05-24T17:06:28.139Z,100732.97
2023-05-24T17:08:55.675Z,100737.38
2023-05-24T17:11:23.403Z,100732.19
2023-05-24T17:13:51.791Z,100732.25
2023-05-24T17:16:19.526Z,100732.28
2023-05-24T17:18:46.855Z,100730.56
2023-05-24T17:21:14.167Z,100732.28
2023-05-24T17:23:41.680Z,100735.84
2023-05-24T17:26:09.842Z,100739.38
2023-05-24T17:28:37.382Z,100745.44
2023-05-24T17:31:04.746Z,100743.88
2023-05-24T17:33:32.557Z,100746.50
2023-05-24T17:36:04.523Z,100753.41
2023-05-24T17:38:37.687Z,100758.63
2023-05-24T17:41:07.647Z,100753.47
2023-05-24T17:43:35.262Z,100755.28
2023-05-24T17:46:04.195Z,100766.50
2023-05-24T17:48:35.501Z,100774.28
2023-05-24T17:51:05.318Z,100776.03
2023-05-24T17:53:35.003Z,100776.09
2023-05-24T17:56:03.625Z,100772.69
2023-05-24T17:58:31.174Z,100771.88
2023-05-24T18:00:58.594Z,100771.06
2023-05-24T18:03:25.880Z,100769.47
2023-05-24T18:05:53.075Z,100772.09
2023-05-24T18:08:20.392Z,100769.66
2023-05-24T18:10:47.633Z,100772.22
2023-05-24T18:13:14.962Z,100779.19
2023-05-24T18:15:42.484Z,100778.31
2023-05-24T18:18:10.041Z,100778.28
2023-05-24T18:20:37.313Z,100774.94
2023-05-24T18:23:04.533Z,100779.28
2023-05-24T18:25:31.865Z,100788.75
2023-05-24T18:27:59.224Z,100790.56
2023-05-24T18:30:26.456Z,100802.78
2023-05-24T18:33:05.544Z,100806.25
2023-05-24T18:35:35.377Z,100808.09
2023-05-24T18:38:03.664Z,100811.59
2023-05-24T18:40:30.927Z,100808.16
2023-05-24T18:42:58.012Z,100818.63
2023-05-24T18:45:25.155Z,100816.88
2023-05-24T18:47:54.314Z,100826.50
2023-05-24T18:50:23.500Z,100824.81
2023-05-24T18:52:50.822Z,100826.56
2023-05-24T18:55:18.141Z,100823.97
2023-05-24T18:57:45.385Z,100830.91
2023-05-24T19:00:13.260Z,100833.56
2023-05-24T19:02:41.115Z,100829.25
2023-05-24T19:05:09.198Z,100836.19
2023-05-24T19:07:37.140Z,100842.38
2023-05-24T19:10:04.697Z,100838.94
2023-05-24T19:12:32.115Z,100837.25
2023-05-24T19:14:59.881Z,100841.59
2023-05-24T19:17:27.185Z,100845.97
2023-05-24T19:19:54.829Z,100850.28
2023-05-24T19:22:22.165Z,100845.94
2023-05-24T19:24:49.373Z,100831.34
2023-05-24T19:27:16.577Z,100846.03
2023-05-24T19:29:43.798Z,100838.34
2023-05-24T19:32:11.849Z,100843.56
2023-05-24T19:34:42.566Z,100855.66
2023-05-24T19:37:10.190Z,100848.72
2023-05-24T19:39:37.903Z,100848.75
2023-05-24T19:42:05.288Z,100860.97
2023-05-24T19:44:32.494Z,100854.13
2023-05-24T19:46:59.682Z,100859.28
2023-05-24T19:49:26.950Z,100862.72
2023-05-24T19:51:54.168Z,100867.13
2023-05-24T19:54:21.746Z,100871.47
2023-05-24T19:56:50.925Z,100870.63
2023-05-24T19:59:18.821Z,100871.53
2023-05-24T20:01:46.060Z,100876.72
2023-05-24T20:04:13.611Z,100876.72
2023-05-24T20:06:40.981Z,100866.38
2023-05-24T20:09:08.900Z,100873.34
2023-05-24T20:11:36.121Z,100862.13
2023-05-24T20:14:03.605Z,100825.16
2023-05-24T20:16:31.646Z,100871.63
2023-05-24T20:18:58.820Z,100875.97
2023-05-24T20:21:26.079Z,100875.09
2023-05-24T20:23:58.677Z,100869.03
2023-05-24T20:26:26.634Z,100852.63
2023-05-24T20:28:53.929Z,100866.44
2023-05-24T20:31:21.158Z,100869.03
2023-05-24T20:33:51.683Z,100864.72
2023-05-24T20:36:18.762Z,100870.88
2023-05-24T20:38:46.022Z,100873.47
2023-05-24T20:41:13.096Z,100857.97
2023-05-24T20:43:40.260Z,100866.63
2023-05-24T20:46:07.476Z,100861.47
2023-05-24T20:48:34.946Z,100859.81
2023-05-24T20:51:02.272Z,100866.72
2023-05-24T20:53:29.561Z,100869.38
2023-05-24T20:55:57.512Z,100869.38
2023-05-24T20:58:24.927Z,100867.66
2023-05-24T21:00:52.312Z,100877.16
2023-05-24T21:03:19.843Z,100871.09
2023-05-24T21:05:47.271Z,100868.50
2023-05-24T21:08:14.555Z,100875.41
2023-05-24T21:10:41.718Z,100871.09
2023-05-24T21:13:09.024Z,100877.16
2023-05-24T21:15:36.355Z,100882.38
2023-05-24T21:18:04.164Z,100866.81
2023-05-24T21:20:31.584Z,100878.03
2023-05-24T21:22:58.888Z,100873.72
2023-05-24T21:25:26.112Z,100874.56
2023-05-24T21:27:53.330Z,100870.25
2023-05-24T21:30:20.698Z,100877.22
2023-05-24T21:32:47.927Z,100876.34
2023-05-24T21:35:15.197Z,100875.47
2023-05-24T21:37:42.490Z,100871.16
2023-05-24T21:40:10.152Z,100872.00
2023-05-24T21:42:37.538Z,100870.31
2023-05-24T21:45:05.039Z,100863.41
2023-05-24T21:47:33.344Z,100863.38
2023-05-24T21:50:00.656Z,100872.06
2023-05-24T21:52:27.998Z,100862.53
2023-05-24T21:54:55.692Z,100860.00
2023-05-24T21:57:25.518Z,100866.94
2023-05-24T21:59:53.509Z,100872.13
2023-05-24T22:02:21.826Z,100875.59
2023-05-24T22:04:49.302Z,100860.94
2023-05-24T22:07:16.434Z,100874.75
2023-05-24T22:09:43.720Z,100880.78
2023-05-24T22:12:11.253Z,100879.09
2023-05-24T22:14:38.501Z,100883.44
2023-05-24T22:17:05.907Z,100874.00
2023-05-24T22:22:03.408Z,100881.78
2023-05-24T22:24:31.084Z,100889.56
2023-05-24T22:26:58.317Z,100885.28
2023-05-24T22:29:25.501Z,100888.72
2023-05-24T22:31:52.825Z,100896.47
2023-05-24T22:34:27.631Z,100897.31
2023-05-24T22:36:55.375Z,100894.75
2023-05-24T22:39:22.583Z,100898.25
2023-05-24T22:41:51.844Z,100886.19
2023-05-24T22:44:19.344Z,100893.06
2023-05-24T22:46:49.962Z,100887.91
2023-05-24T22:49:19.792Z,100892.25
2023-05-24T22:51:48.558Z,100892.25
2023-05-24T22:54:15.966Z,100896.63
2023-05-24T22:56:43.945Z,100893.16
2023-05-24T22:59:11.472Z,100893.19
2023-05-24T23:01:39.161Z,100900.09
2023-05-24T23:04:19.540Z,100907.03
2023-05-24T23:06:47.748Z,100902.72
2023-05-24T23:09:15.000Z,100905.28
2023-05-24T23:11:43.135Z,100903.59
2023-05-24T23:14:11.545Z,100907.03
2023-05-24T23:16:46.159Z,100905.38
2023-05-24T23:19:18.723Z,100901.91
2023-05-24T23:21:46.403Z,100897.66
2023-05-24T23:24:16.098Z,100900.28
2023-05-24T23:26:43.874Z,100908.88
2023-05-24T23:29:11.064Z,100914.09
2023-05-24T23:31:38.548Z,100916.69
2023-05-24T23:34:05.981Z,100910.66
2023-05-24T23:36:33.745Z,100901.16
2023-05-24T23:39:00.969Z,100915.84
2023-05-24T23:41:28.143Z,100917.63
2023-05-24T23:43:55.570Z,100918.47
2023-05-24T23:46:22.770Z,100913.31
2023-05-24T23:48:50.025Z,100919.38
2023-05-24T23:51:17.267Z,100915.91
2023-05-24T23:53:44.403Z,100914.22
2023-05-24T23:56:11.943Z,100909.06
2023-05-24T23:58:39.030Z,100921.19
